Time;durP1;ratioP1;P1;durP2;ratioP2;P2;SDS_P1;SDS_P2;PMS_P1;PMS_P2;Temp;Humidity;BMP_temperature;BMP_pressure;BME280_temperature;BME280_humidity;BME280_pressure;Samples;Min_cycle;Max_cycle;Signal;HPM_P1;HPM_P2
2023/01/24 00:01:49;;;;;;;;;;;;;;;4.55;100.00;101308.25;5074789;28;19950;-77
2023/01/24 00:04:14;;;;;;;;;;;;;;;4.31;100.00;101305.81;5046547;28;19974;-76
2023/01/24 00:06:40;;;;;;;;;;;;;;;3.86;100.00;101289.13;5074737;28;19920;-76
2023/01/24 00:09:05;;;;;;;;;;;;;;;4.34;100.00;101301.69;5054069;28;19916;-75
2023/01/24 00:11:30;;;;;;;;;;;;;;;4.03;100.00;101287.09;5055027;28;19922;-76
2023/01/24 00:13:56;;;;;;;;;;;;;;;4.05;100.00;101297.38;5054300;28;20059;-76
2023/01/24 00:16:21;;;;;;;;;;;;;;;4.18;100.00;101300.34;5072864;28;19991;-76
2023/01/24 00:18:47;;;;;;;;;;;;;;;4.27;100.00;101309.97;5055335;28;21194;-76
2023/01/24 00:21:13;;;;;;;;;;;;;;;4.03;100.00;101294.75;5076123;28;19920;-76
2023/01/24 00:23:42;;;;;;;;;;;;;;;4.18;100.00;101302.88;5038392;28;19938;-76
2023/01/24 00:26:07;;;;;;;;;;;;;;;3.84;100.00;101292.44;5071652;28;19916;-76
2023/01/24 00:28:33;;;;;;;;;;;;;;;4.49;100.00;101303.81;5054089;28;19923;-76
2023/01/24 00:30:58;;;;;;;;;;;;;;;3.91;100.00;101299.47;5054320;28;19959;-76
2023/01/24 00:33:23;;;;;;;;;;;;;;;4.27;100.00;101306.56;5054617;28;19920;-78
2023/01/24 00:35:50;;;;;;;;;;;;;;;3.40;100.00;101289.28;5072713;28;19916;-77
2023/01/24 00:38:15;;;;;;;;;;;;;;;4.51;100.00;101304.72;5054841;28;19932;-77
2023/01/24 00:40:40;;;;;;;;;;;;;;;3.71;100.00;101292.03;5071279;28;20013;-77
2023/01/24 00:43:06;;;;;;;;;;;;;;;4.58;100.00;101306.66;5071816;28;19996;-78
2023/01/24 00:45:31;;;;;;;;;;;;;;;4.53;100.00;101297.97;5073646;28;20374;-75
2023/01/24 00:47:56;;;;;;;;;;;;;;;3.96;100.00;101282.63;5071128;28;19966;-76
2023/01/24 00:50:21;;;;;;;;;;;;;;;4.51;100.00;101293.66;5072902;28;20029;-76
2023/01/24 00:52:47;;;;;;;;;;;;;;;4.45;100.00;101289.25;5071736;28;20664;-78
2023/01/24 00:55:12;;;;;;;;;;;;;;;4.57;100.00;101281.94;5052767;28;20452;-78
2023/01/24 00:57:38;;;;;;;;;;;;;;;4.46;100.00;101262.91;5070026;28;19923;-76
2023/01/24 01:00:03;;;;;;;;;;;;;;;3.91;100.00;101258.69;5048041;28;19924;-76
2023/01/24 01:02:28;;;;;;;;;;;;;;;4.25;100.00;101275.88;5071787;28;19938;-76
2023/01/24 01:04:53;;;;;;;;;;;;;;;3.84;100.00;101277.16;5070842;28;19921;-76
2023/01/24 01:07:20;;;;;;;;;;;;;;;4.77;100.00;101302.09;5053811;28;20474;-78
2023/01/24 01:09:46;;;;;;;;;;;;;;;4.04;100.00;101301.59;5050535;28;19916;-77
2023/01/24 01:12:11;;;;;;;;;;;;;;;4.32;100.00;101302.44;5054544;28;20424;-76
2023/01/24 01:14:36;;;;;;;;;;;;;;;3.66;100.00;101288.47;5070084;28;19920;-76
2023/01/24 01:17:01;;;;;;;;;;;;;;;4.51;100.00;101311.50;5071769;28;19912;-76
2023/01/24 01:19:26;;;;;;;;;;;;;;;4.14;100.00;101298.50;5071096;28;19916;-75
2023/01/24 01:21:52;;;;;;;;;;;;;;;4.37;100.00;101306.00;5053980;28;19928;-75
2023/01/24 01:24:17;;;;;;;;;;;;;;;4.54;100.00;101309.94;5050852;28;19927;-76
2023/01/24 01:26:42;;;;;;;;;;;;;;;4.47;100.00;101297.81;5051217;28;19956;-78
2023/01/24 01:29:07;;;;;;;;;;;;;;;4.11;100.00;101287.38;5071788;28;19969;-76
2023/01/24 01:31:32;;;;;;;;;;;;;;;4.30;100.00;101288.78;5051446;28;19920;-76
2023/01/24 01:33:58;;;;;;;;;;;;;;;4.84;100.00;101296.34;5070477;28;20594;-78
2023/01/24 01:36:23;;;;;;;;;;;;;;;4.58;100.00;101282.81;5071544;28;19962;-78
2023/01/24 01:38:48;;;;;;;;;;;;;;;4.32;100.00;101279.50;5069236;28;19963;-76
2023/01/24 01:41:14;;;;;;;;;;;;;;;4.55;100.00;101296.34;5071717;28;19948;-76
2023/01/24 01:44:37;;;;;;;;;;;;;;;4.55;100.00;101293.78;5053269;28;19924;-75
2023/01/24 01:46:24;;;;;;;;;;;;;;;4.46;100.00;101290.97;5072238;28;19951;-76
2023/01/24 01:48:50;;;;;;;;;;;;;;;3.79;100.00;101279.56;5052901;28;19969;-76
2023/01/24 01:51:22;;;;;;;;;;;;;;;4.06;100.00;101287.22;5053983;28;19920;-77
2023/01/24 01:53:49;;;;;;;;;;;;;;;3.80;100.00;101285.53;5071613;28;20035;-76
2023/01/24 01:56:35;;;;;;;;;;;;;;;3.95;100.00;101297.06;5051675;28;19919;-75
2023/01/24 01:59:02;;;;;;;;;;;;;;;3.97;100.00;101304.78;5059257;28;19916;-76
2023/01/24 02:01:27;;;;;;;;;;;;;;;4.17;100.00;101308.81;5070765;28;19928;-78
2023/01/24 02:03:59;;;;;;;;;;;;;;;4.27;100.00;101309.09;5068968;28;20377;-76
2023/01/24 02:06:30;;;;;;;;;;;;;;;4.67;100.00;101316.25;5052909;28;19921;-76
2023/01/24 02:08:56;;;;;;;;;;;;;;;4.21;100.00;101298.72;5052004;28;19959;-76
2023/01/24 02:11:39;;;;;;;;;;;;;;;3.94;100.00;101290.22;5070834;28;19947;-77
2023/01/24 02:16:53;;;;;;;;;;;;;;;3.70;100.00;101295.41;5054042;28;19923;-77
2023/01/24 02:19:38;;;;;;;;;;;;;;;3.83;100.00;101311.97;5068501;28;19915;-77
2023/01/24 02:22:07;;;;;;;;;;;;;;;4.49;100.00;101323.34;5052988;28;19978;-76
2023/01/24 02:24:33;;;;;;;;;;;;;;;4.36;100.00;101301.72;5043578;28;20700;-76
2023/01/24 02:26:59;;;;;;;;;;;;;;;5.03;100.00;101306.22;5050832;28;19915;-76
2023/01/24 02:29:24;;;;;;;;;;;;;;;5.02;100.00;101289.19;5043116;28;19927;-75
2023/01/24 02:31:59;;;;;;;;;;;;;;;4.48;100.00;101279.13;5051305;28;19920;-75
2023/01/24 02:34:25;;;;;;;;;;;;;;;3.89;100.00;101255.22;5051354;28;19939;-76
2023/01/24 02:36:51;;;;;;;;;;;;;;;3.54;100.00;101249.88;5055393;28;19920;-77
2023/01/24 02:39:18;;;;;;;;;;;;;;;4.24;100.00;101273.28;5030847;28;19956;-76
2023/01/24 02:41:48;;;;;;;;;;;;;;;4.16;100.00;101276.47;5051814;28;19920;-77
2023/01/24 02:44:17;;;;;;;;;;;;;;;4.02;100.00;101274.34;5052922;28;20451;-76
2023/01/24 02:46:42;;;;;;;;;;;;;;;3.50;100.00;101268.41;5051726;28;19920;-76
2023/01/24 02:49:08;;;;;;;;;;;;;;;3.54;100.00;101277.91;5070956;28;19922;-76
2023/01/24 02:54:17;;;;;;;;;;;;;;;3.28;100.00;101294.81;5069805;28;20523;-76
2023/01/24 02:59:26;;;;;;;;;;;;;;;3.74;100.00;101306.56;5070229;28;19927;-75
2023/01/24 03:01:52;;;;;;;;;;;;;;;3.68;100.00;101307.22;5051217;28;19920;-76
2023/01/24 03:04:17;;;;;;;;;;;;;;;4.65;100.00;101323.00;5069430;28;19924;-76
2023/01/24 03:06:42;;;;;;;;;;;;;;;4.43;100.00;101295.13;5071857;28;19923;-74
2023/01/24 03:09:18;;;;;;;;;;;;;;;4.68;100.00;101291.63;5069757;28;19971;-76
2023/01/24 03:11:43;;;;;;;;;;;;;;;4.81;100.00;101288.56;5053780;28;20302;-75
2023/01/24 03:36:01;;;;;;;;;;;;;;;4.98;100.00;101246.50;5058192;28;19931;-76
2023/01/24 03:41:10;;;;;;;;;;;;;;;3.69;100.00;101235.06;5075100;28;19930;-76
2023/01/24 03:43:36;;;;;;;;;;;;;;;3.89;100.00;101250.13;5073861;28;19920;-77
2023/01/24 03:46:01;;;;;;;;;;;;;;;3.71;100.00;101241.06;5073068;28;20023;-75
2023/01/24 03:48:33;;;;;;;;;;;;;;;4.03;100.00;101253.97;5055005;28;19924;-76
2023/01/24 03:53:42;;;;;;;;;;;;;;;3.52;100.00;101248.94;5058176;28;19973;-76
2023/01/24 03:56:08;;;;;;;;;;;;;;;3.56;100.00;101260.97;5055104;28;19920;-75
2023/01/24 03:58:33;;;;;;;;;;;;;;;3.64;100.00;101267.19;5054560;28;20393;-75
2023/01/24 04:00:58;;;;;;;;;;;;;;;3.90;100.00;101287.53;5074048;28;20030;-75
2023/01/24 04:03:23;;;;;;;;;;;;;;;3.70;100.00;101275.03;5069410;28;19995;-77
2023/01/24 04:05:49;;;;;;;;;;;;;;;3.92;100.00;101284.25;5053975;28;19958;-77
2023/01/24 04:08:14;;;;;;;;;;;;;;;3.24;100.00;101265.84;5053126;28;19930;-75
2023/01/24 04:10:39;;;;;;;;;;;;;;;4.64;100.00;101300.00;5055158;28;20409;-77
2023/01/24 04:13:05;;;;;;;;;;;;;;;4.13;100.00;101270.44;5054327;28;19931;-75
2023/01/24 04:15:31;;;;;;;;;;;;;;;3.50;100.00;101245.47;5051244;28;20328;-75
2023/01/24 04:17:56;;;;;;;;;;;;;;;4.19;100.00;101261.25;5054999;28;20532;-77
2023/01/24 04:20:22;;;;;;;;;;;;;;;4.63;100.00;101262.53;5072490;28;19920;-75
2023/01/24 04:22:47;;;;;;;;;;;;;;;3.93;100.00;101234.13;5052583;28;20390;-76
2023/01/24 04:25:12;;;;;;;;;;;;;;;4.03;100.00;101238.66;5070687;28;19931;-77
2023/01/24 04:27:37;;;;;;;;;;;;;;;4.46;100.00;101260.34;5054184;28;19928;-75
2023/01/24 04:30:04;;;;;;;;;;;;;;;4.21;100.00;101257.91;5072232;28;20022;-77
2023/01/24 04:32:29;;;;;;;;;;;;;;;4.78;100.00;101265.50;5053860;28;19928;-75
2023/01/24 04:34:54;;;;;;;;;;;;;;;4.35;100.00;101241.31;5054823;28;20530;-75
2023/01/24 04:37:20;;;;;;;;;;;;;;;4.27;100.00;101235.13;5072464;28;19965;-77
2023/01/24 04:39:45;;;;;;;;;;;;;;;4.15;100.00;101227.97;5071458;28;19921;-75
2023/01/24 04:42:10;;;;;;;;;;;;;;;4.39;100.00;101240.59;5054058;28;20018;-75
2023/01/24 04:44:35;;;;;;;;;;;;;;;3.97;100.00;101238.50;5069967;28;19960;-76
2023/01/24 04:47:00;;;;;;;;;;;;;;;3.97;100.00;101248.69;5074424;28;19927;-75
2023/01/24 04:49:26;;;;;;;;;;;;;;;4.60;100.00;101263.31;5072798;28;19923;-76
2023/01/24 04:51:51;;;;;;;;;;;;;;;4.18;100.00;101244.22;5070726;28;20291;-75
2023/01/24 04:54:16;;;;;;;;;;;;;;;4.03;100.00;101248.84;5052336;28;19896;-77
2023/01/24 04:56:42;;;;;;;;;;;;;;;4.08;100.00;101242.25;5056981;28;20010;-77
2023/01/24 04:59:07;;;;;;;;;;;;;;;3.67;100.00;101244.38;5053687;28;19919;-78
2023/01/24 05:01:32;;;;;;;;;;;;;;;4.49;100.00;101264.69;5053703;28;20369;-78
2023/01/24 05:04:00;;;;;;;;;;;;;;;4.45;100.00;101256.09;5071196;28;20221;-77
2023/01/24 05:06:26;;;;;;;;;;;;;;;4.65;100.00;101260.88;5074322;28;20003;-77
2023/01/24 05:08:52;;;;;;;;;;;;;;;4.51;100.00;101255.38;5053103;28;20015;-77
2023/01/24 05:11:17;;;;;;;;;;;;;;;3.56;100.00;101235.50;5051746;28;19920;-80
2023/01/24 05:13:42;;;;;;;;;;;;;;;4.02;100.00;101254.78;5071595;28;19920;-77
2023/01/24 05:16:08;;;;;;;;;;;;;;;3.56;100.00;101248.25;5072074;28;20573;-79
2023/01/24 05:18:33;;;;;;;;;;;;;;;4.65;100.00;101279.59;5070913;28;19973;-77
2023/01/24 05:21:06;;;;;;;;;;;;;;;4.38;100.00;101266.94;5052497;28;20509;-78
2023/01/24 05:23:31;;;;;;;;;;;;;;;3.49;100.00;101244.63;5052808;28;19982;-78
2023/01/24 05:26:00;;;;;;;;;;;;;;;4.24;100.00;101269.03;5053226;28;19924;-76
2023/01/24 05:28:25;;;;;;;;;;;;;;;4.68;100.00;101271.19;5052195;28;20864;-76
2023/01/24 05:30:50;;;;;;;;;;;;;;;4.33;100.00;101258.25;5051244;28;19959;-78
2023/01/24 05:33:15;;;;;;;;;;;;;;;3.67;100.00;101248.56;5070515;28;19962;-75
2023/01/24 05:35:43;;;;;;;;;;;;;;;4.28;100.00;101263.22;5069594;28;19967;-76
2023/01/24 05:38:08;;;;;;;;;;;;;;;4.10;100.00;101265.22;5070773;28;19927;-75
2023/01/24 05:40:33;;;;;;;;;;;;;;;4.93;100.00;101281.25;5051983;28;19924;-77
2023/01/24 05:42:58;;;;;;;;;;;;;;;4.69;100.00;101260.16;5069580;28;19970;-78
2023/01/24 05:45:24;;;;;;;;;;;;;;;4.82;100.00;101252.03;5054040;28;19967;-76
2023/01/24 05:47:49;;;;;;;;;;;;;;;4.65;100.00;101243.88;5069146;28;19993;-76
2023/01/24 05:50:14;;;;;;;;;;;;;;;4.45;100.00;101248.44;5071604;28;19920;-77
2023/01/24 05:52:39;;;;;;;;;;;;;;;3.92;100.00;101234.91;5050451;28;19921;-78
2023/01/24 05:55:05;;;;;;;;;;;;;;;4.31;100.00;101255.69;5053922;28;19927;-75
2023/01/24 05:57:31;;;;;;;;;;;;;;;4.67;100.00;101259.25;5071166;28;19920;-76
2023/01/24 05:59:56;;;;;;;;;;;;;;;4.01;100.00;101254.72;5068684;28;19916;-76
2023/01/24 06:02:21;;;;;;;;;;;;;;;3.93;100.00;101257.91;5054563;28;19939;-78
2023/01/24 06:04:46;;;;;;;;;;;;;;;3.90;100.00;101264.59;5071879;28;19950;-78
2023/01/24 06:07:11;;;;;;;;;;;;;;;4.81;100.00;101283.47;5070893;28;20282;-76
2023/01/24 06:09:37;;;;;;;;;;;;;;;3.63;100.00;101247.63;5069390;28;20293;-76
2023/01/24 06:12:02;;;;;;;;;;;;;;;4.19;100.00;101271.44;5069488;28;20496;-77
2023/01/24 06:14:27;;;;;;;;;;;;;;;3.55;100.00;101264.31;5071650;28;20505;-78
2023/01/24 06:16:52;;;;;;;;;;;;;;;3.80;100.00;101273.63;5068358;28;19932;-75
2023/01/24 06:19:18;;;;;;;;;;;;;;;3.62;100.00;101281.53;5067357;28;19912;-76
2023/01/24 06:21:47;;;;;;;;;;;;;;;3.92;100.00;101291.88;5070531;28;20035;-76
2023/01/24 06:24:25;;;;;;;;;;;;;;;4.30;100.00;101304.09;5070509;28;19924;-76
2023/01/24 06:26:51;;;;;;;;;;;;;;;4.83;100.00;101304.78;5052536;28;20575;-78
2023/01/24 06:29:17;;;;;;;;;;;;;;;3.77;100.00;101274.41;5051437;28;20008;-75
2023/01/24 06:31:57;;;;;;;;;;;;;;;3.66;100.00;101283.38;5042488;28;19972;-75
2023/01/24 06:34:22;;;;;;;;;;;;;;;4.63;100.00;101305.91;5070560;28;20015;-78
2023/01/24 06:36:47;;;;;;;;;;;;;;;4.83;100.00;101307.34;5046282;28;20056;-77
2023/01/24 06:39:14;;;;;;;;;;;;;;;4.07;100.00;101296.59;5069924;28;19920;-77
2023/01/24 06:41:39;;;;;;;;;;;;;;;4.38;100.00;101307.75;5052490;28;20473;-76
2023/01/24 06:44:05;;;;;;;;;;;;;;;3.90;100.00;101313.03;5070249;28;19927;-76
2023/01/24 06:46:30;;;;;;;;;;;;;;;3.84;100.00;101306.06;5070105;28;19920;-75
2023/01/24 06:48:55;;;;;;;;;;;;;;;4.09;100.00;101320.47;5072645;28;20539;-75
2023/01/24 06:51:20;;;;;;;;;;;;;;;4.22;100.00;101314.06;5072914;28;20306;-77
2023/01/24 06:53:45;;;;;;;;;;;;;;;3.94;100.00;101315.72;5074141;28;20550;-75
2023/01/24 06:56:11;;;;;;;;;;;;;;;4.79;100.00;101331.09;5056011;28;21182;-78
2023/01/24 06:58:36;;;;;;;;;;;;;;;4.42;100.00;101318.91;5073284;28;20018;-75
2023/01/24 07:01:02;;;;;;;;;;;;;;;3.71;100.00;101307.31;5074098;28;19920;-79
2023/01/24 07:03:27;;;;;;;;;;;;;;;3.57;100.00;101308.56;5060303;28;20358;-76
2023/01/24 07:05:52;;;;;;;;;;;;;;;3.74;100.00;101327.84;5057206;28;19916;-78
2023/01/24 07:08:20;;;;;;;;;;;;;;;3.45;100.00;101333.63;5073364;28;19960;-74
2023/01/24 07:10:45;;;;;;;;;;;;;;;3.72;100.00;101349.84;5073802;28;19974;-74
2023/01/24 07:13:11;;;;;;;;;;;;;;;3.26;100.00;101337.19;5073426;28;19916;-75
2023/01/24 07:15:36;;;;;;;;;;;;;;;3.32;100.00;101348.47;5052038;28;19952;-75
2023/01/24 07:18:21;;;;;;;;;;;;;;;3.84;100.00;101363.81;5054167;28;20225;-75
2023/01/24 07:20:47;;;;;;;;;;;;;;;3.89;100.00;101358.03;5071815;28;20017;-76
2023/01/24 07:23:13;;;;;;;;;;;;;;;4.19;100.00;101368.38;5053787;28;19985;-76
2023/01/24 07:25:39;;;;;;;;;;;;;;;4.38;100.00;101359.63;5054774;28;20002;-76
2023/01/24 07:28:05;;;;;;;;;;;;;;;3.81;100.00;101345.84;5072546;28;20397;-75
2023/01/24 07:30:30;;;;;;;;;;;;;;;4.60;100.00;101350.94;5068907;28;19922;-75
2023/01/24 07:32:55;;;;;;;;;;;;;;;3.72;100.00;101329.47;5053461;28;19920;-75
2023/01/24 07:35:20;;;;;;;;;;;;;;;3.52;100.00;101325.38;5069694;28;19917;-75
2023/01/24 07:37:46;;;;;;;;;;;;;;;4.02;100.00;101354.22;5072031;28;19939;-75
2023/01/24 07:40:11;;;;;;;;;;;;;;;3.64;100.00;101351.25;5072329;28;20029;-74
2023/01/24 07:42:36;;;;;;;;;;;;;;;3.22;100.00;101348.97;5073688;28;19924;-75
2023/01/24 07:45:02;;;;;;;;;;;;;;;3.81;100.00;101354.41;5073614;28;20716;-75
2023/01/24 07:47:27;;;;;;;;;;;;;;;3.89;100.00;101365.69;5053148;28;20901;-76
2023/01/24 07:49:52;;;;;;;;;;;;;;;4.27;100.00;101371.19;5072370;28;20420;-73
2023/01/24 07:52:17;;;;;;;;;;;;;;;3.76;100.00;101356.78;5071288;28;20002;-74
2023/01/24 07:54:42;;;;;;;;;;;;;;;3.97;100.00;101361.72;5055520;28;19967;-74
2023/01/24 07:57:08;;;;;;;;;;;;;;;4.06;100.00;101363.72;5071287;28;19917;-73
2023/01/24 07:59:33;;;;;;;;;;;;;;;3.53;100.00;101362.75;5053014;28;19917;-74
2023/01/24 08:01:58;;;;;;;;;;;;;;;3.58;100.00;101366.34;5052753;28;19912;-73
2023/01/24 08:04:23;;;;;;;;;;;;;;;3.63;100.00;101385.22;5071689;28;20146;-74
2023/01/24 08:09:49;;;;;;;;;;;;;;;3.62;100.00;101377.50;5036624;28;20975;-73
2023/01/24 08:12:15;;;;;;;;;;;;;;;4.45;100.00;101396.41;5061500;28;20007;-73
2023/01/24 08:14:40;;;;;;;;;;;;;;;3.41;100.00;101367.44;5051122;28;19920;-74
2023/01/24 08:17:05;;;;;;;;;;;;;;;3.40;100.00;101366.59;5069927;28;19912;-74
2023/01/24 08:19:31;;;;;;;;;;;;;;;3.89;100.00;101397.97;5044542;28;19920;-73
2023/01/24 08:21:56;;;;;;;;;;;;;;;4.13;100.00;101400.47;5070893;28;19923;-74
2023/01/24 08:24:22;;;;;;;;;;;;;;;4.29;100.00;101399.25;5071451;28;19919;-74
2023/01/24 08:26:48;;;;;;;;;;;;;;;4.02;100.00;101384.81;5070599;28;20649;-74
2023/01/24 08:29:14;;;;;;;;;;;;;;;3.57;100.00;101379.91;5070877;28;19920;-73
2023/01/24 08:31:39;;;;;;;;;;;;;;;3.48;100.00;101377.03;5071311;28;20307;-74
2023/01/24 08:34:04;;;;;;;;;;;;;;;4.15;100.00;101397.16;5071134;28;19922;-74
2023/01/24 08:36:30;;;;;;;;;;;;;;;4.23;100.00;101399.94;5052552;28;19916;-74
2023/01/24 08:38:55;;;;;;;;;;;;;;;4.08;100.00;101381.59;5070337;28;20302;-73
2023/01/24 08:41:20;;;;;;;;;;;;;;;3.96;100.00;101384.59;5071619;28;20321;-74
2023/01/24 08:43:45;;;;;;;;;;;;;;;3.62;100.00;101380.91;5071002;28;20298;-73
2023/01/24 08:46:10;;;;;;;;;;;;;;;4.92;100.00;101402.06;5069781;28;20399;-73
2023/01/24 08:48:36;;;;;;;;;;;;;;;4.59;100.00;101382.38;5070906;28;20932;-74
2023/01/24 08:51:05;;;;;;;;;;;;;;;4.06;100.00;101370.47;5053538;28;21319;-73
2023/01/24 08:53:30;;;;;;;;;;;;;;;3.99;100.00;101379.59;5052550;28;19966;-73
2023/01/24 08:55:55;;;;;;;;;;;;;;;4.44;100.00;101389.56;5052034;28;20434;-74
2023/01/24 08:58:20;;;;;;;;;;;;;;;4.64;100.00;101384.22;5052279;28;19939;-74
2023/01/24 09:00:46;;;;;;;;;;;;;;;4.72;100.00;101375.09;5070597;28;19924;-74
2023/01/24 09:03:11;;;;;;;;;;;;;;;4.10;100.00;101355.31;5051889;28;20006;-74
2023/01/24 09:05:38;;;;;;;;;;;;;;;4.34;100.00;101364.59;5051819;28;20011;-74
2023/01/24 09:08:03;;;;;;;;;;;;;;;5.19;100.00;101383.28;5068668;28;20017;-74
2023/01/24 09:10:28;;;;;;;;;;;;;;;4.86;100.00;101360.19;5069357;28;20005;-74
2023/01/24 09:12:54;;;;;;;;;;;;;;;5.39;100.00;101369.38;5053125;28;19943;-75
2023/01/24 09:15:19;;;;;;;;;;;;;;;5.31;100.00;101362.31;5069664;28;19951;-74
2023/01/24 09:17:44;;;;;;;;;;;;;;;5.11;100.00;101343.88;5071014;28;19959;-74
2023/01/24 09:20:10;;;;;;;;;;;;;;;3.78;100.00;101333.88;5069769;28;19920;-74
2023/01/24 09:22:35;;;;;;;;;;;;;;;4.72;100.00;101358.09;5050970;28;19959;-74
2023/01/24 09:25:00;;;;;;;;;;;;;;;4.35;100.00;101363.75;5070603;28;19994;-75
2023/01/24 09:27:26;;;;;;;;;;;;;;;5.07;100.00;101367.63;5070098;28;19915;-74
2023/01/24 09:29:51;;;;;;;;;;;;;;;4.51;100.00;101365.09;5070609;28;19920;-75
2023/01/24 09:32:19;;;;;;;;;;;;;;;4.61;100.00;101368.00;5070057;28;19946;-74
2023/01/24 09:34:47;;;;;;;;;;;;;;;3.99;100.00;101354.09;5069576;28;19932;-74
2023/01/24 09:37:18;;;;;;;;;;;;;;;4.14;100.00;101367.34;5070920;28;19978;-75
2023/01/24 09:39:43;;;;;;;;;;;;;;;5.03;100.00;101387.94;5068590;28;20362;-74
2023/01/24 09:42:24;;;;;;;;;;;;;;;4.84;100.00;101375.47;5070071;28;20006;-74
2023/01/24 09:44:49;;;;;;;;;;;;;;;4.73;100.00;101369.19;5068689;28;20451;-73
2023/01/24 09:47:22;;;;;;;;;;;;;;;5.75;100.00;101380.53;5069044;28;19924;-73
2023/01/24 09:49:51;;;;;;;;;;;;;;;5.99;100.00;101359.84;5052218;28;20011;-73
2023/01/24 09:52:21;;;;;;;;;;;;;;;5.38;100.00;101326.75;5069458;28;19916;-74
2023/01/24 09:55:18;;;;;;;;;;;;;;;6.36;100.00;101330.88;5050680;28;19924;-75
2023/01/24 09:57:47;;;;;;;;;;;;;;;6.33;100.00;101310.34;5029365;28;20053;-74
2023/01/24 10:00:29;;;;;;;;;;;;;;;5.78;100.00;101294.53;5070348;28;20262;-74
2023/01/24 10:02:54;;;;;;;;;;;;;;;5.18;100.00;101287.03;5070514;28;19963;-73
2023/01/24 10:05:22;;;;;;;;;;;;;;;6.50;100.00;101295.38;5070121;28;19956;-75
2023/01/24 10:07:53;;;;;;;;;;;;;;;5.45;100.00;101280.09;5042836;28;20289;-74
2023/01/24 10:10:31;;;;;;;;;;;;;;;4.77;100.00;101286.78;5068791;28;20440;-73
2023/01/24 10:13:04;;;;;;;;;;;;;;;4.68;100.00;101299.28;5070940;28;19923;-73
2023/01/24 10:15:29;;;;;;;;;;;;;;;4.84;100.00;101306.53;5050689;28;19927;-73
2023/01/24 10:18:00;;;;;;;;;;;;;;;4.92;100.00;101322.91;5068348;28;20891;-74
2023/01/24 10:20:29;;;;;;;;;;;;;;;4.60;100.00;101305.00;5068138;28;20385;-74
2023/01/24 10:23:12;;;;;;;;;;;;;;;4.55;100.00;101311.66;5073195;28;19916;-74
2023/01/24 10:25:37;;;;;;;;;;;;;;;5.06;100.00;101319.91;5073276;28;19925;-74
2023/01/24 10:28:02;;;;;;;;;;;;;;;6.01;100.00;101315.56;5073607;28;19920;-73
2023/01/24 10:30:30;;;;;;;;;;;;;;;6.20;100.00;101285.31;5073541;28;19923;-75
2023/01/24 10:32:58;;;;;;;;;;;;;;;6.37;100.00;101270.34;5054721;28;19913;-73
2023/01/24 10:35:26;;;;;;;;;;;;;;;6.24;100.00;101270.06;5056447;28;20397;-74
2023/01/24 10:37:55;;;;;;;;;;;;;;;5.51;100.00;101252.97;5054755;28;19924;-74
2023/01/24 10:40:21;;;;;;;;;;;;;;;5.53;100.00;101256.41;5054381;28;19913;-74
2023/01/24 10:42:46;;;;;;;;;;;;;;;5.08;100.00;101244.19;5056595;28;19916;-74
2023/01/24 10:45:11;;;;;;;;;;;;;;;5.00;100.00;101265.28;5073416;28;19959;-74
2023/01/24 10:47:40;;;;;;;;;;;;;;;4.43;100.00;101259.41;5073399;28;19966;-73
2023/01/24 10:50:09;;;;;;;;;;;;;;;4.94;100.00;101270.22;5074368;28;20007;-74
2023/01/24 10:52:34;;;;;;;;;;;;;;;4.71;100.00;101263.63;5073170;28;19930;-74
2023/01/24 10:55:01;;;;;;;;;;;;;;;4.78;100.00;101262.97;5073753;28;19916;-74
2023/01/24 10:57:38;;;;;;;;;;;;;;;4.42;100.00;101258.53;5054122;28;20003;-75
2023/01/24 11:00:05;;;;;;;;;;;;;;;4.37;100.00;101272.84;5073796;28;20034;-74
2023/01/24 11:02:30;;;;;;;;;;;;;;;4.60;100.00;101279.47;5072973;28;19916;-73
2023/01/24 11:05:00;;;;;;;;;;;;;;;6.48;100.00;101294.47;5072618;28;19973;-74
2023/01/24 11:07:38;;;;;;;;;;;;;;;5.75;100.00;101245.03;5054594;28;19920;-74
2023/01/24 11:10:14;;;;;;;;;;;;;;;5.37;100.00;101240.69;5054879;28;20425;-74
2023/01/24 11:12:46;;;;;;;;;;;;;;;4.97;100.00;101256.66;5072536;28;19916;-75
2023/01/24 11:15:25;;;;;;;;;;;;;;;4.46;100.00;101255.25;5054289;28;20020;-74
2023/01/24 11:17:55;;;;;;;;;;;;;;;5.47;100.00;101267.34;5055851;28;19923;-74
2023/01/24 11:20:33;;;;;;;;;;;;;;;5.72;100.00;101263.69;5070801;28;19916;-73
2023/01/24 11:23:02;;;;;;;;;;;;;;;6.00;100.00;101254.19;5073214;28;19916;-73
2023/01/24 11:25:27;;;;;;;;;;;;;;;5.04;100.00;101222.84;5073275;28;19920;-74
2023/01/24 11:27:52;;;;;;;;;;;;;;;5.85;100.00;101229.91;5072614;28;20130;-75
2023/01/24 11:30:19;;;;;;;;;;;;;;;6.14;100.00;101227.19;5072186;28;20334;-75
2023/01/24 11:32:47;;;;;;;;;;;;;;;5.25;100.00;101207.19;5053784;28;19916;-74
2023/01/24 11:35:15;;;;;;;;;;;;;;;5.86;100.00;101221.44;5052785;28;20449;-74
2023/01/24 11:37:43;;;;;;;;;;;;;;;5.78;100.00;101214.41;5053822;28;19976;-74
2023/01/24 11:40:25;;;;;;;;;;;;;;;6.89;100.00;101223.59;5072325;28;20009;-75
2023/01/24 11:43:09;;;;;;;;;;;;;;;6.10;100.00;101188.72;5054305;28;19916;-74
2023/01/24 11:45:37;;;;;;;;;;;;;;;5.54;100.00;101196.78;5071323;28;20299;-75
2023/01/24 11:48:06;;;;;;;;;;;;;;;5.96;100.00;101180.75;5071944;28;19923;-74
2023/01/24 11:50:44;;;;;;;;;;;;;;;4.93;100.00;101171.47;5053492;28;19912;-74
2023/01/24 11:53:09;;;;;;;;;;;;;;;5.33;100.00;101180.13;5071841;28;19927;-74
2023/01/24 11:55:46;;;;;;;;;;;;;;;4.58;100.00;101194.38;5071813;28;19916;-74
2023/01/24 11:58:15;;;;;;;;;;;;;;;5.59;100.00;101197.78;5046082;28;19916;-74
2023/01/24 12:00:42;;;;;;;;;;;;;;;5.34;100.00;101186.97;5072876;28;19973;-74
2023/01/24 12:03:26;;;;;;;;;;;;;;;6.05;100.00;101175.84;5052613;28;20461;-73
2023/01/24 12:06:10;;;;;;;;;;;;;;;6.34;100.00;101178.13;5071820;28;19920;-74
2023/01/24 12:08:35;;;;;;;;;;;;;;;6.73;100.00;101154.13;5071295;28;20310;-74
2023/01/24 12:11:06;;;;;;;;;;;;;;;5.34;100.00;101130.78;5070306;28;19924;-74
2023/01/24 12:13:35;;;;;;;;;;;;;;;5.41;100.00;101129.22;5072522;28;19932;-74
2023/01/24 12:16:05;;;;;;;;;;;;;;;5.53;100.00;101139.72;5053532;28;19927;-73
2023/01/24 12:18:37;;;;;;;;;;;;;;;5.77;100.00;101152.19;5052252;28;20513;-74
2023/01/24 12:21:08;;;;;;;;;;;;;;;6.32;100.00;101146.53;5054023;28;19916;-74
2023/01/24 12:23:39;;;;;;;;;;;;;;;5.89;100.00;101137.97;5036509;28;19920;-74
2023/01/24 12:26:24;;;;;;;;;;;;;;;6.07;100.00;101125.59;5071354;28;20516;-74
2023/01/24 12:28:51;;;;;;;;;;;;;;;5.32;100.00;101124.75;5052304;28;19920;-74
2023/01/24 12:31:18;;;;;;;;;;;;;;;6.52;100.00;101129.84;5071674;28;19922;-74
2023/01/24 12:33:49;;;;;;;;;;;;;;;5.71;100.00;101117.97;5052263;28;19920;-75
2023/01/24 12:36:33;;;;;;;;;;;;;;;6.04;100.00;101122.94;5054014;28;19916;-75
2023/01/24 12:38:59;;;;;;;;;;;;;;;6.34;100.00;101126.94;5070273;28;20274;-73
2023/01/24 12:41:29;;;;;;;;;;;;;;;6.12;100.00;101106.06;5051920;28;19916;-74
2023/01/24 12:43:55;;;;;;;;;;;;;;;6.27;100.00;101110.59;5072136;28;19924;-74
2023/01/24 12:46:26;;;;;;;;;;;;;;;6.23;100.00;101111.41;5069477;28;20026;-73
2023/01/24 12:49:20;;;;;;;;;;;;;;;6.94;100.00;101097.31;5068855;28;19916;-74
2023/01/24 12:51:53;;;;;;;;;;;;;;;6.40;100.00;101081.00;5052223;28;19913;-73
2023/01/24 12:54:20;;;;;;;;;;;;;;;6.84;100.00;101065.56;5070516;28;20011;-74
2023/01/24 12:57:04;;;;;;;;;;;;;;;7.03;100.00;101065.03;5053626;28;19920;-74
2023/01/24 12:59:30;;;;;;;;;;;;;;;6.23;100.00;101048.31;5069081;28;20025;-74
2023/01/24 13:02:11;;;;;;;;;;;;;;;6.13;100.00;101060.88;5051638;28;19943;-74
2023/01/24 13:04:39;;;;;;;;;;;;;;;6.89;100.00;101071.63;5068160;28;20434;-74
2023/01/24 13:07:13;;;;;;;;;;;;;;;6.36;100.00;101068.97;5070685;28;20011;-74
2023/01/24 13:09:47;;;;;;;;;;;;;;;6.53;100.00;101059.91;5045988;28;19940;-74
2023/01/24 13:12:20;;;;;;;;;;;;;;;6.38;100.00;101059.63;5052672;28;19990;-75
2023/01/24 13:14:45;;;;;;;;;;;;;;;6.17;100.00;101053.28;5051284;28;19995;-74
2023/01/24 13:17:11;;;;;;;;;;;;;;;6.36;100.00;101048.50;5052020;28;20034;-74